createdAt,value
2017-03-18T00:00:24.373Z,999.90
2017-03-18T00:01:18.369Z,999.92
2017-03-18T00:02:12.948Z,999.94
2017-03-18T00:03:06.429Z,999.85
2017-03-18T00:03:54.443Z,999.78
2017-03-18T00:04:48.517Z,999.74
2017-03-18T00:05:42.494Z,999.67
2017-03-18T00:06:36.531Z,999.62
2017-03-18T00:07:30.601Z,999.63
2017-03-18T00:08:18.644Z,999.58
2017-03-18T00:09:13.089Z,999.56
2017-03-18T00:10:06.742Z,999.52
2017-03-18T00:11:00.744Z,999.66
2017-03-18T00:11:49.722Z,999.50
2017-03-18T00:12:44.240Z,999.42
2017-03-18T00:13:37.858Z,999.43
2017-03-18T00:14:37.887Z,999.39
2017-03-18T00:15:31.870Z,999.32
2017-03-18T00:16:25.889Z,999.24
2017-03-18T00:17:13.887Z,999.21
2017-03-18T00:18:08.040Z,999.17
2017-03-18T00:19:02.022Z,999.17
2017-03-18T00:19:57.080Z,999.18
2017-03-18T00:20:46.088Z,999.09
2017-03-18T00:21:46.085Z,999.01
2017-03-18T00:22:41.146Z,998.88
2017-03-18T00:23:35.197Z,998.83
2017-03-18T00:24:29.629Z,998.74
2017-03-18T00:25:17.212Z,998.78
2017-03-18T00:26:11.251Z,998.78
2017-03-18T00:27:06.310Z,998.82
2017-03-18T00:28:00.274Z,998.69
2017-03-18T00:28:55.312Z,998.73
2017-03-18T00:29:49.384Z,998.70
2017-03-18T00:30:38.438Z,998.67
2017-03-18T00:31:27.433Z,998.62
2017-03-18T00:32:28.429Z,998.50
2017-03-18T00:33:17.551Z,998.59
2017-03-18T00:34:06.719Z,998.59
2017-03-18T00:34:55.628Z,998.64
2017-03-18T00:35:44.618Z,998.60
2017-03-18T00:36:39.646Z,998.57
2017-03-18T00:37:34.699Z,998.43
2017-03-18T00:38:22.707Z,998.48
2017-03-18T00:39:17.230Z,998.42
2017-03-18T00:40:04.813Z,998.31
2017-03-18T00:41:05.847Z,998.27
2017-03-18T00:42:06.868Z,998.21
2017-03-18T00:42:55.922Z,998.20
2017-03-18T00:43:50.912Z,998.23
2017-03-18T00:44:39.028Z,998.18
2017-03-18T00:45:27.040Z,998.19
2017-03-18T00:46:15.068Z,998.10
2017-03-18T00:47:09.098Z,998.13
2017-03-18T00:48:03.081Z,998.09
2017-03-18T00:49:03.098Z,998.01
2017-03-18T00:49:57.180Z,998.04
2017-03-18T00:50:52.201Z,998.04
2017-03-18T00:51:52.271Z,997.96
2017-03-18T00:52:41.241Z,997.86
2017-03-18T00:53:36.277Z,997.82
2017-03-18T00:54:25.327Z,997.71
2017-03-18T00:55:20.330Z,997.69
2017-03-18T00:56:14.325Z,997.62
2017-03-18T00:57:09.439Z,997.66
2017-03-18T00:58:03.447Z,997.66
2017-03-18T00:58:58.446Z,997.62
2017-03-18T00:59:58.490Z,997.53
2017-03-18T01:00:58.499Z,997.55
2017-03-18T01:01:52.567Z,997.52
2017-03-18T01:02:46.610Z,997.53
2017-03-18T01:03:35.608Z,997.61
2017-03-18T01:04:30.647Z,997.46
2017-03-18T01:05:25.676Z,997.44
2017-03-18T01:06:14.724Z,997.45
2017-03-18T01:07:09.754Z,997.33
2017-03-18T01:08:03.784Z,997.34
2017-03-18T01:09:03.758Z,997.36
2017-03-18T01:09:52.851Z,997.35
2017-03-18T01:10:41.853Z,997.32
2017-03-18T01:11:35.991Z,997.32
2017-03-18T01:12:29.961Z,997.23
2017-03-18T01:13:18.087Z,997.18
2017-03-18T01:14:18.026Z,997.07
2017-03-18T01:15:07.015Z,997.12
2017-03-18T01:16:01.050Z,997.13
2017-03-18T01:16:49.129Z,997.11
2017-03-18T01:17:50.199Z,997.05
2017-03-18T01:18:39.185Z,997.07
2017-03-18T01:19:27.307Z,997.01
2017-03-18T01:20:22.306Z,997.02
2017-03-18T01:21:17.237Z,997.07
2017-03-18T01:22:11.341Z,996.93
2017-03-18T01:23:12.311Z,996.96
2017-03-18T01:24:07.343Z,996.87
2017-03-18T01:24:56.393Z,996.87
2017-03-18T01:25:50.417Z,996.78
2017-03-18T01:26:38.466Z,996.79
2017-03-18T01:27:27.523Z,996.84
2017-03-18T01:28:15.540Z,996.82
2017-03-18T01:29:04.558Z,996.83
2017-03-18T01:30:04.576Z,996.77
2017-03-18T01:31:04.643Z,996.85
2017-03-18T01:31:59.666Z,996.83
2017-03-18T01:32:48.739Z,996.72
2017-03-18T01:33:43.747Z,996.72
2017-03-18T01:34:43.741Z,996.74
2017-03-18T01:35:32.773Z,996.66
2017-03-18T01:36:26.816Z,996.62
2017-03-18T01:37:20.883Z,996.61
2017-03-18T01:38:14.921Z,996.62
2017-03-18T01:39:08.911Z,996.51
2017-03-18T01:39:56.947Z,996.51
2017-03-18T01:40:50.949Z,996.54
2017-03-18T01:41:46.033Z,996.59
2017-03-18T01:42:46.058Z,996.53
2017-03-18T01:43:41.088Z,996.47
2017-03-18T01:44:35.098Z,996.37
2017-03-18T01:45:29.157Z,996.47
2017-03-18T01:46:29.149Z,996.47
2017-03-18T01:47:17.250Z,996.45
2017-03-18T01:48:17.292Z,996.40
2017-03-18T01:49:12.297Z,996.44
2017-03-18T01:50:12.244Z,996.43
2017-03-18T01:51:06.378Z,996.42
2017-03-18T01:52:00.347Z,996.42
2017-03-18T01:52:54.356Z,996.45
2017-03-18T01:53:42.407Z,996.44
2017-03-18T01:54:31.441Z,996.48
2017-03-18T01:55:20.464Z,996.51
2017-03-18T01:56:08.473Z,996.49
2017-03-18T01:57:03.531Z,996.51
2017-03-18T01:57:51.583Z,996.41
2017-03-18T01:58:46.638Z,996.38
2017-03-18T01:59:46.638Z,996.36
2017-03-18T02:00:34.666Z,996.18
2017-03-18T02:01:28.714Z,996.28
2017-03-18T02:02:23.755Z,996.18
2017-03-18T02:03:17.778Z,996.22
2017-03-18T02:04:12.818Z,996.20
2017-03-18T02:05:06.838Z,996.24
2017-03-18T02:06:00.808Z,996.21
2017-03-18T02:06:54.905Z,996.07
2017-03-18T02:07:54.890Z,996.06
2017-03-18T02:08:48.971Z,995.96
2017-03-18T02:09:37.986Z,996.01
2017-03-18T02:10:27.028Z,995.89
2017-03-18T02:11:16.033Z,995.86
2017-03-18T02:12:10.028Z,995.79
2017-03-18T02:13:04.103Z,995.81
2017-03-18T02:14:05.160Z,995.79
2017-03-18T02:14:59.221Z,995.82
2017-03-18T02:15:53.245Z,995.78
2017-03-18T02:16:47.310Z,995.69
2017-03-18T02:17:35.295Z,995.74
2017-03-18T02:18:30.280Z,995.67
2017-03-18T02:19:24.321Z,995.65
2017-03-18T02:20:13.372Z,995.60
2017-03-18T02:21:13.435Z,995.57
2017-03-18T02:22:02.416Z,995.55
2017-03-18T02:22:51.462Z,995.54
2017-03-18T02:23:51.514Z,995.55
2017-03-18T02:24:39.640Z,995.60
2017-03-18T02:25:33.595Z,995.48
2017-03-18T02:26:21.665Z,995.59
2017-03-18T02:27:15.648Z,995.52
2017-03-18T02:28:10.720Z,995.56
2017-03-18T02:29:05.722Z,995.47
2017-03-18T02:30:00.754Z,995.55
2017-03-18T02:31:00.743Z,995.52
2017-03-18T02:31:54.830Z,995.50
2017-03-18T02:32:48.857Z,995.49
2017-03-18T02:33:42.827Z,995.50
2017-03-18T02:34:37.906Z,995.38
2017-03-18T02:35:31.954Z,995.39
2017-03-18T02:36:19.954Z,995.42
2017-03-18T02:37:14.965Z,995.34
2017-03-18T02:38:15.021Z,995.34
2017-03-18T02:39:10.029Z,995.28
2017-03-18T02:39:59.149Z,995.31
2017-03-18T02:40:53.137Z,995.30
2017-03-18T02:41:47.155Z,995.15
2017-03-18T02:42:36.188Z,995.19
2017-03-18T02:43:25.232Z,995.23
2017-03-18T02:44:14.271Z,995.18
2017-03-18T02:45:03.348Z,995.17
2017-03-18T02:45:58.332Z,995.21
2017-03-18T02:46:58.387Z,995.08
2017-03-18T02:47:53.459Z,995.10
2017-03-18T02:48:42.452Z,995.06
2017-03-18T02:49:36.420Z,995.11
2017-03-18T02:50:25.550Z,994.96
2017-03-18T02:51:19.584Z,995.04
2017-03-18T02:52:13.556Z,994.97
2017-03-18T02:53:07.630Z,995.00
2017-03-18T02:54:01.597Z,994.99
2017-03-18T02:54:55.671Z,994.92
2017-03-18T02:55:50.677Z,994.93
2017-03-18T02:56:39.759Z,994.96
2017-03-18T02:57:33.740Z,994.94
2017-03-18T02:58:27.834Z,995.07
2017-03-18T02:59:16.843Z,995.03
2017-03-18T03:00:17.840Z,994.93
2017-03-18T03:01:06.937Z,994.94
2017-03-18T03:02:00.941Z,994.88
2017-03-18T03:02:55.970Z,994.87
2017-03-18T03:03:50.040Z,994.86
2017-03-18T03:04:44.031Z,994.81
2017-03-18T03:05:39.068Z,994.80
2017-03-18T03:06:33.629Z,994.77
2017-03-18T03:07:33.691Z,994.76
2017-03-18T03:08:27.149Z,994.77
2017-03-18T03:09:16.147Z,994.81
2017-03-18T03:10:11.248Z,994.73
2017-03-18T03:11:00.256Z,994.69
2017-03-18T03:11:54.291Z,994.54
2017-03-18T03:12:49.334Z,994.63
2017-03-18T03:13:38.351Z,994.56
2017-03-18T03:14:32.447Z,994.70
2017-03-18T03:15:21.357Z,994.67
2017-03-18T03:16:15.397Z,994.66
2017-03-18T03:17:09.516Z,994.61
2017-03-18T03:18:03.547Z,994.63
2017-03-18T03:18:58.555Z,994.62
2017-03-18T03:19:47.635Z,994.64
2017-03-18T03:20:36.761Z,994.57
2017-03-18T03:21:31.665Z,994.57
2017-03-18T03:22:31.660Z,994.54
2017-03-18T03:23:25.865Z,994.63
2017-03-18T03:24:19.754Z,994.66
2017-03-18T03:25:13.813Z,994.65
2017-03-18T03:26:07.869Z,994.53
2017-03-18T03:26:56.879Z,994.61
2017-03-18T03:27:56.891Z,994.64
2017-03-18T03:28:45.942Z,994.63
2017-03-18T03:29:35.080Z,994.63
2017-03-18T03:30:30.042Z,994.63
2017-03-18T03:31:25.001Z,994.47
2017-03-18T03:32:19.060Z,994.60
2017-03-18T03:33:07.105Z,994.59
2017-03-18T03:34:07.147Z,994.56
2017-03-18T03:35:07.116Z,994.51
2017-03-18T03:35:55.203Z,994.48
2017-03-18T03:36:55.282Z,994.50
2017-03-18T03:37:44.323Z,994.48
2017-03-18T03:38:32.249Z,994.48
2017-03-18T03:39:27.353Z,994.44
2017-03-18T03:40:16.688Z,994.43
2017-03-18T03:41:05.429Z,994.45
2017-03-18T03:42:00.416Z,994.44
2017-03-18T03:42:54.449Z,994.22
2017-03-18T03:43:42.529Z,994.41
2017-03-18T03:44:36.696Z,994.30
2017-03-18T03:45:25.515Z,994.43
2017-03-18T03:46:19.630Z,994.46
2017-03-18T03:47:07.584Z,994.38
2017-03-18T03:48:01.645Z,994.39
2017-03-18T03:48:50.647Z,994.38
2017-03-18T03:49:40.171Z,994.43
2017-03-18T03:50:33.759Z,994.46
2017-03-18T03:51:27.820Z,994.41
2017-03-18T03:52:16.858Z,994.33
2017-03-18T03:53:10.888Z,994.34
2017-03-18T03:53:58.928Z,994.39
2017-03-18T03:54:52.976Z,994.33
2017-03-18T03:55:41.410Z,994.27
2017-03-18T03:56:35.030Z,994.35
2017-03-18T03:57:30.037Z,994.25
2017-03-18T03:58:18.086Z,994.27
2017-03-18T03:59:07.145Z,994.28
2017-03-18T03:59:56.089Z,994.33
2017-03-18T04:00:45.232Z,994.29
2017-03-18T04:01:39.247Z,994.20
2017-03-18T04:02:33.251Z,994.24
2017-03-18T04:03:22.333Z,994.26
2017-03-18T04:04:17.346Z,994.19
2017-03-18T04:05:11.369Z,994.23
2017-03-18T04:05:59.416Z,994.24
2017-03-18T04:06:48.449Z,994.29
2017-03-18T04:07:37.479Z,994.30
2017-03-18T04:08:26.477Z,994.27
2017-03-18T04:09:14.521Z,994.28
2017-03-18T04:10:09.568Z,994.25
2017-03-18T04:10:57.610Z,994.20
2017-03-18T04:11:46.629Z,994.25
2017-03-18T04:12:41.709Z,994.31
2017-03-18T04:13:29.714Z,994.25
2017-03-18T04:14:17.728Z,994.26
2017-03-18T04:15:12.817Z,994.21
2017-03-18T04:16:06.828Z,994.29
2017-03-18T04:17:01.843Z,994.22
2017-03-18T04:18:01.922Z,994.15
2017-03-18T04:18:50.936Z,994.21
2017-03-18T04:19:39.938Z,994.22
2017-03-18T04:20:34.051Z,994.23
2017-03-18T04:21:23.013Z,994.13
2017-03-18T04:22:18.040Z,994.18
2017-03-18T04:23:18.089Z,994.17
2017-03-18T04:24:12.102Z,994.17
2017-03-18T04:25:01.144Z,994.19
2017-03-18T04:25:49.146Z,994.14
2017-03-18T04:26:37.276Z,994.17
2017-03-18T04:27:32.293Z,994.18
2017-03-18T04:28:21.334Z,994.17
2017-03-18T04:29:10.297Z,994.27
2017-03-18T04:30:05.321Z,994.21
2017-03-18T04:30:59.408Z,994.20
2017-03-18T04:31:48.404Z,994.19
2017-03-18T04:32:37.469Z,994.15
2017-03-18T04:33:31.559Z,994.18
2017-03-18T04:34:19.565Z,994.23
2017-03-18T04:35:08.582Z,994.23
2017-03-18T04:36:03.609Z,994.12
2017-03-18T04:36:58.621Z,994.00
2017-03-18T04:37:58.647Z,994.05
2017-03-18T04:38:53.010Z,994.07
2017-03-18T04:39:41.754Z,994.10
2017-03-18T04:40:30.729Z,994.11
2017-03-18T04:41:24.827Z,994.16
2017-03-18T04:42:12.854Z,994.20
2017-03-18T04:43:01.909Z,994.17
2017-03-18T04:43:55.917Z,994.13
2017-03-18T04:44:45.527Z,994.15
2017-03-18T04:45:38.997Z,994.10
2017-03-18T04:46:34.044Z,994.14
2017-03-18T04:47:28.094Z,994.04
2017-03-18T04:48:22.163Z,994.06
2017-03-18T04:49:10.152Z,994.03
2017-03-18T04:50:04.214Z,994.08
2017-03-18T04:50:58.168Z,994.06
2017-03-18T04:51:46.647Z,994.05
2017-03-18T04:52:40.254Z,994.08
2017-03-18T04:53:34.328Z,994.04
2017-03-18T04:54:28.337Z,994.15
2017-03-18T04:55:22.331Z,994.17
2017-03-18T04:56:16.422Z,994.06
2017-03-18T04:57:10.442Z,993.99
2017-03-18T04:58:04.456Z,994.16
2017-03-18T04:58:53.533Z,994.04
2017-03-18T04:59:48.053Z,994.05
2017-03-18T05:00:41.574Z,994.02
2017-03-18T05:01:36.610Z,993.96
2017-03-18T05:02:30.636Z,994.00
2017-03-18T05:03:24.672Z,993.99
2017-03-18T05:04:12.721Z,993.96
2017-03-18T05:05:01.720Z,994.02
2017-03-18T05:05:55.754Z,994.03
2017-03-18T05:06:49.766Z,994.04
2017-03-18T05:07:37.898Z,994.11
2017-03-18T05:08:31.896Z,994.06
2017-03-18T05:09:19.927Z,994.08
2017-03-18T05:10:14.939Z,994.07
2017-03-18T05:11:04.363Z,994.14
2017-03-18T05:11:59.072Z,994.11
2017-03-18T05:12:48.530Z,994.08
2017-03-18T05:13:37.212Z,994.21
2017-03-18T05:14:31.048Z,994.22
2017-03-18T05:15:20.145Z,994.24
2017-03-18T05:16:09.199Z,994.25
2017-03-18T05:16:58.238Z,994.34
2017-03-18T05:17:53.252Z,994.16
2017-03-18T05:18:54.348Z,994.29
2017-03-18T05:19:43.345Z,994.28
2017-03-18T05:20:32.417Z,994.26
2017-03-18T05:21:21.397Z,994.22
2017-03-18T05:22:15.448Z,994.29
2017-03-18T05:23:10.493Z,994.39
2017-03-18T05:23:58.505Z,994.40
2017-03-18T05:24:58.537Z,994.37
2017-03-18T05:25:46.561Z,994.49
2017-03-18T05:26:40.580Z,994.51
2017-03-18T05:27:34.643Z,994.44
2017-03-18T05:28:28.708Z,994.52
2017-03-18T05:29:22.733Z,994.46
2017-03-18T05:30:17.736Z,994.59
2017-03-18T05:31:07.242Z,994.58
2017-03-18T05:31:55.830Z,994.56
2017-03-18T05:32:43.894Z,994.54
2017-03-18T05:33:38.555Z,994.60
2017-03-18T05:34:26.963Z,994.60
2017-03-18T05:35:20.953Z,994.55
2017-03-18T05:36:09.044Z,994.58
2017-03-18T05:37:03.027Z,994.56
2017-03-18T05:38:03.071Z,994.58
2017-03-18T05:38:52.136Z,994.67
2017-03-18T05:39:52.131Z,994.56
2017-03-18T05:40:47.168Z,994.68
2017-03-18T05:41:41.626Z,994.67
2017-03-18T05:42:35.245Z,994.65
2017-03-18T05:43:35.241Z,994.72
2017-03-18T05:44:29.271Z,994.69
2017-03-18T05:45:30.332Z,994.70
2017-03-18T05:46:18.339Z,994.60
2017-03-18T05:47:06.419Z,994.69
2017-03-18T05:48:00.445Z,994.64
2017-03-18T05:48:54.503Z,994.62
2017-03-18T05:49:43.513Z,994.63
2017-03-18T05:50:31.580Z,994.66
2017-03-18T05:51:19.623Z,994.67
2017-03-18T05:52:14.685Z,994.72
2017-03-18T05:53:09.114Z,994.71
2017-03-18T05:53:57.703Z,994.73
2017-03-18T05:54:45.773Z,994.81
2017-03-18T05:55:45.774Z,994.72
2017-03-18T05:56:34.790Z,994.68
2017-03-18T05:57:28.862Z,994.66
2017-03-18T05:58:22.940Z,994.61
2017-03-18T05:59:10.937Z,994.61
2017-03-18T06:00:04.966Z,994.56
2017-03-18T06:00:59.021Z,994.56
2017-03-18T06:01:53.006Z,994.60
2017-03-18T06:02:48.065Z,994.59
2017-03-18T06:03:42.129Z,994.61
2017-03-18T06:04:37.112Z,994.66
2017-03-18T06:05:37.112Z,994.67
2017-03-18T06:06:32.234Z,994.66
2017-03-18T06:07:26.296Z,994.65
2017-03-18T06:08:15.485Z,994.64
2017-03-18T06:09:03.325Z,994.64
2017-03-18T06:09:52.362Z,994.64
2017-03-18T06:10:40.359Z,994.62
2017-03-18T06:11:29.413Z,994.66
2017-03-18T06:12:24.452Z,994.72
2017-03-18T06:13:13.566Z,994.81
2017-03-18T06:14:02.850Z,994.77
2017-03-18T06:14:51.544Z,994.71
2017-03-18T06:15:40.660Z,994.70
2017-03-18T06:16:35.637Z,994.64
2017-03-18T06:17:24.700Z,994.71
2017-03-18T06:18:18.693Z,994.76
2017-03-18T06:19:08.059Z,994.70
2017-03-18T06:19:56.798Z,994.75
2017-03-18T06:20:44.821Z,994.79
2017-03-18T06:21:32.859Z,994.80
2017-03-18T06:22:21.874Z,994.87
2017-03-18T06:23:09.948Z,994.89
2017-03-18T06:23:57.991Z,994.92
2017-03-18T06:24:52.361Z,994.94
2017-03-18T06:25:46.686Z,994.87
2017-03-18T06:26:40.156Z,994.95
2017-03-18T06:27:34.151Z,994.91
2017-03-18T06:28:29.194Z,994.90
2017-03-18T06:29:23.230Z,994.80
2017-03-18T06:30:11.552Z,994.85
2017-03-18T06:30:59.300Z,994.79
2017-03-18T06:31:48.696Z,994.77
2017-03-18T06:32:36.351Z,994.75
2017-03-18T06:33:36.411Z,994.69
2017-03-18T06:34:30.412Z,994.69
2017-03-18T06:35:24.854Z,994.64
2017-03-18T06:36:12.549Z,994.66
2017-03-18T06:37:01.537Z,994.74
2017-03-18T06:37:55.588Z,994.60
2017-03-18T06:38:49.592Z,994.70
2017-03-18T06:39:43.643Z,994.73
2017-03-18T06:40:38.010Z,994.68
2017-03-18T06:41:31.720Z,994.70
2017-03-18T06:42:25.724Z,994.78
2017-03-18T06:43:13.819Z,994.78
2017-03-18T06:44:01.886Z,994.77
2017-03-18T06:44:50.312Z,994.81
2017-03-18T06:45:44.209Z,994.73
2017-03-18T06:46:38.946Z,994.75
2017-03-18T06:47:28.007Z,994.58
2017-03-18T06:48:17.138Z,994.78
2017-03-18T06:49:06.096Z,994.81
2017-03-18T06:49:55.143Z,994.83
2017-03-18T06:50:44.437Z,994.85
2017-03-18T06:51:32.240Z,994.81
2017-03-18T06:52:26.526Z,994.85
2017-03-18T06:53:15.242Z,994.98
2017-03-18T06:54:04.304Z,994.98
2017-03-18T06:54:53.346Z,994.99
2017-03-18T06:55:47.372Z,994.99
2017-03-18T06:56:35.419Z,995.00
2017-03-18T06:57:24.424Z,995.00
2017-03-18T06:58:13.927Z,994.96
2017-03-18T06:59:08.533Z,994.94
2017-03-18T07:00:08.589Z,995.04
2017-03-18T07:00:57.900Z,995.01
2017-03-18T07:01:51.867Z,995.16
2017-03-18T07:02:45.891Z,995.08
2017-03-18T07:03:34.021Z,995.09
2017-03-18T07:04:27.769Z,995.12
2017-03-18T07:05:16.827Z,995.15
2017-03-18T07:06:05.845Z,995.15
2017-03-18T07:06:59.902Z,995.21
2017-03-18T07:07:47.925Z,995.27
2017-03-18T07:08:37.282Z,995.23
2017-03-18T07:09:37.016Z,995.23
2017-03-18T07:10:30.972Z,995.29
2017-03-18T07:11:20.066Z,995.27
2017-03-18T07:12:20.085Z,995.32
2017-03-18T07:13:14.151Z,995.27
2017-03-18T07:14:02.365Z,995.30
2017-03-18T07:14:56.221Z,995.28
2017-03-18T07:15:45.248Z,995.34
2017-03-18T07:16:34.332Z,995.34
2017-03-18T07:17:28.293Z,995.38
2017-03-18T07:18:16.372Z,995.35
2017-03-18T07:19:11.449Z,995.39
2017-03-18T07:20:05.484Z,995.41
2017-03-18T07:20:54.943Z,995.39
2017-03-18T07:21:48.543Z,995.46
2017-03-18T07:22:42.578Z,995.43
2017-03-18T07:23:36.578Z,995.43
2017-03-18T07:24:25.991Z,995.48
2017-03-18T07:25:20.650Z,995.36
2017-03-18T07:26:09.722Z,995.41
2017-03-18T07:27:09.791Z,995.44
2017-03-18T07:28:03.777Z,995.33
2017-03-18T07:28:58.422Z,995.36
2017-03-18T07:29:46.976Z,995.54
2017-03-18T07:30:41.915Z,995.55
2017-03-18T07:31:41.935Z,995.57
2017-03-18T07:32:30.893Z,995.52
2017-03-18T07:33:20.006Z,995.57
2017-03-18T07:34:09.058Z,995.63
2017-03-18T07:34:58.039Z,995.57
2017-03-18T07:35:47.126Z,995.68
2017-03-18T07:36:35.115Z,995.71
2017-03-18T07:37:29.618Z,995.64
2017-03-18T07:38:23.264Z,995.66
2017-03-18T07:39:17.230Z,995.70
2017-03-18T07:40:05.285Z,995.72
2017-03-18T07:40:53.325Z,995.67
2017-03-18T07:41:41.340Z,995.72
2017-03-18T07:42:30.431Z,995.71
2017-03-18T07:43:24.457Z,995.66
2017-03-18T07:44:19.547Z,995.78
2017-03-18T07:45:13.714Z,995.64
2017-03-18T07:46:01.603Z,995.79
2017-03-18T07:46:50.610Z,995.72
2017-03-18T07:47:44.688Z,995.75
2017-03-18T07:48:32.730Z,995.72
2017-03-18T07:49:21.777Z,995.76
2017-03-18T07:50:16.796Z,995.77
2017-03-18T07:51:10.844Z,995.77
2017-03-18T07:51:58.845Z,995.80
2017-03-18T07:52:47.881Z,995.80
2017-03-18T07:53:35.947Z,995.80
2017-03-18T07:54:24.996Z,995.77
2017-03-18T07:55:13.004Z,995.83
2017-03-18T07:56:01.522Z,995.79
2017-03-18T07:56:55.069Z,995.79
2017-03-18T07:57:49.127Z,995.86
2017-03-18T07:58:37.171Z,995.84
2017-03-18T07:59:26.270Z,995.88
2017-03-18T08:00:14.268Z,995.85
2017-03-18T08:01:02.952Z,995.87
2017-03-18T08:01:56.345Z,995.91
2017-03-18T08:02:56.410Z,995.95
2017-03-18T08:03:45.460Z,995.88
2017-03-18T08:04:33.912Z,995.91
2017-03-18T08:05:21.511Z,996.01
2017-03-18T08:06:10.539Z,995.98
2017-03-18T08:06:58.591Z,996.00
2017-03-18T08:07:52.640Z,996.00
2017-03-18T08:08:41.645Z,996.02
2017-03-18T08:09:29.715Z,996.03
2017-03-18T08:10:17.750Z,995.92
2017-03-18T08:11:06.740Z,995.94
2017-03-18T08:11:54.869Z,995.97
2017-03-18T08:12:48.869Z,995.95
2017-03-18T08:13:38.381Z,995.97
2017-03-18T08:14:31.944Z,996.01
2017-03-18T08:15:21.029Z,995.88
2017-03-18T08:16:15.058Z,995.98
2017-03-18T08:17:03.339Z,995.99
2017-03-18T08:17:57.137Z,995.96
2017-03-18T08:18:46.142Z,995.88
2017-03-18T08:19:35.159Z,995.90
2017-03-18T08:20:23.216Z,995.97
2017-03-18T08:21:12.231Z,995.97
2017-03-18T08:22:00.339Z,995.98
2017-03-18T08:22:54.371Z,996.02
2017-03-18T08:23:49.384Z,996.08
2017-03-18T08:24:38.825Z,996.07
2017-03-18T08:25:32.426Z,996.03
2017-03-18T08:26:21.519Z,996.04
2017-03-18T08:27:09.576Z,996.01
2017-03-18T08:28:03.654Z,995.96
2017-03-18T08:28:51.677Z,995.99
2017-03-18T08:29:45.647Z,996.08
2017-03-18T08:30:40.333Z,996.08
2017-03-18T08:31:27.761Z,996.15
2017-03-18T08:32:16.772Z,996.15
2017-03-18T08:33:10.931Z,996.16
2017-03-18T08:33:59.858Z,996.25
2017-03-18T08:34:53.921Z,996.29
2017-03-18T08:35:42.996Z,996.23
2017-03-18T08:36:37.031Z,996.23
2017-03-18T08:37:31.020Z,996.31
2017-03-18T08:38:19.077Z,996.28
2017-03-18T08:39:08.533Z,996.26
2017-03-18T08:40:02.109Z,996.26
2017-03-18T08:40:57.176Z,996.24
2017-03-18T08:41:46.209Z,996.23
2017-03-18T08:42:40.777Z,996.31
2017-03-18T08:43:28.377Z,996.32
2017-03-18T08:44:22.350Z,996.32
2017-03-18T08:45:17.352Z,996.35
2017-03-18T08:46:12.436Z,996.33
2017-03-18T08:47:01.456Z,996.37
2017-03-18T08:47:55.539Z,996.34
2017-03-18T08:48:44.742Z,996.42
2017-03-18T08:49:38.557Z,996.32
2017-03-18T08:50:32.596Z,996.28
2017-03-18T08:51:21.628Z,996.34
2017-03-18T08:52:09.699Z,996.34
2017-03-18T08:53:03.730Z,996.36
2017-03-18T08:53:57.783Z,996.50
2017-03-18T08:54:51.795Z,996.50
2017-03-18T08:55:40.829Z,996.44
2017-03-18T08:56:28.875Z,996.40
2017-03-18T08:57:22.942Z,996.43
2017-03-18T08:58:17.964Z,996.47
2017-03-18T08:59:07.035Z,996.48
2017-03-18T09:00:01.028Z,996.56
2017-03-18T09:00:55.038Z,996.51
2017-03-18T09:01:49.101Z,996.59
2017-03-18T09:02:44.645Z,996.65
2017-03-18T09:03:32.263Z,996.61
2017-03-18T09:04:20.339Z,996.62
2017-03-18T09:05:14.273Z,996.72
2017-03-18T09:06:09.313Z,996.64
2017-03-18T09:06:57.364Z,996.65
2017-03-18T09:07:51.309Z,996.61
2017-03-18T09:08:40.413Z,996.62
2017-03-18T09:09:29.494Z,996.81
2017-03-18T09:10:18.698Z,996.85
2017-03-18T09:11:07.520Z,996.86
2017-03-18T09:11:56.609Z,996.75
2017-03-18T09:12:50.534Z,996.79
2017-03-18T09:13:44.685Z,996.79
2017-03-18T09:14:33.714Z,996.89
2017-03-18T09:15:22.757Z,996.87
2017-03-18T09:16:16.961Z,996.84
2017-03-18T09:17:05.838Z,996.86
2017-03-18T09:17:54.838Z,996.75
2017-03-18T09:18:49.343Z,996.70
2017-03-18T09:19:43.997Z,996.70
2017-03-18T09:20:38.002Z,996.73
2017-03-18T09:21:26.992Z,996.70
2017-03-18T09:22:15.066Z,996.76
2017-03-18T09:23:04.116Z,996.71
2017-03-18T09:23:52.640Z,996.67
2017-03-18T09:24:41.167Z,996.71
2017-03-18T09:25:29.238Z,996.82
2017-03-18T09:26:23.506Z,996.86
2017-03-18T09:27:11.322Z,996.87
2017-03-18T09:27:59.349Z,996.90
2017-03-18T09:28:53.728Z,996.80
2017-03-18T09:29:41.443Z,996.66
2017-03-18T09:30:35.529Z,996.81
2017-03-18T09:31:29.520Z,996.78
2017-03-18T09:32:17.548Z,996.82
2017-03-18T09:33:06.622Z,996.77
2017-03-18T09:34:06.676Z,996.87
2017-03-18T09:34:55.659Z,996.93
2017-03-18T09:35:44.749Z,996.92
2017-03-18T09:36:33.786Z,996.92
2017-03-18T09:37:23.274Z,996.86
2017-03-18T09:38:10.875Z,996.86
2017-03-18T09:39:04.927Z,996.83
2017-03-18T09:39:53.367Z,996.87
2017-03-18T09:40:41.008Z,996.88
2017-03-18T09:41:30.034Z,996.87
2017-03-18T09:42:18.067Z,996.91
2017-03-18T09:43:07.130Z,996.91
2017-03-18T09:44:02.145Z,996.98
2017-03-18T09:45:02.162Z,997.03
2017-03-18T09:45:56.658Z,997.06
2017-03-18T09:46:44.295Z,997.11
2017-03-18T09:47:33.326Z,997.25
2017-03-18T09:48:27.456Z,997.14
2017-03-18T09:49:15.435Z,997.16
2017-03-18T09:50:09.427Z,997.16
2017-03-18T09:51:04.462Z,997.20
2017-03-18T09:51:53.534Z,997.32
2017-03-18T09:52:47.593Z,997.37
2017-03-18T09:53:41.643Z,997.48
2017-03-18T09:54:36.607Z,997.33
2017-03-18T09:55:26.072Z,997.35
2017-03-18T09:56:19.744Z,997.37
2017-03-18T09:57:13.795Z,997.42
2017-03-18T09:58:01.828Z,997.50
2017-03-18T09:58:55.923Z,997.60
2017-03-18T09:59:50.884Z,997.55
2017-03-18T10:00:39.931Z,997.51
2017-03-18T10:01:34.910Z,997.59
2017-03-18T10:02:29.401Z,997.58
2017-03-18T10:03:17.047Z,997.64
2017-03-18T10:04:05.022Z,997.64
2017-03-18T10:04:59.589Z,997.67
2017-03-18T10:05:48.148Z,997.58
2017-03-18T10:06:36.256Z,997.41
2017-03-18T10:07:31.409Z,997.67
2017-03-18T10:08:20.231Z,997.61
2017-03-18T10:09:08.332Z,997.68
2017-03-18T10:09:57.355Z,997.67
2017-03-18T10:10:51.451Z,997.61
2017-03-18T10:11:40.433Z,997.74
2017-03-18T10:12:29.862Z,997.72
2017-03-18T10:13:18.571Z,997.63
2017-03-18T10:14:07.581Z,997.67
2017-03-18T10:14:55.644Z,997.78
2017-03-18T10:15:44.678Z,997.78
2017-03-18T10:16:32.896Z,997.69
2017-03-18T10:17:26.732Z,997.70
2017-03-18T10:18:20.823Z,997.70
2017-03-18T10:19:14.835Z,997.72
2017-03-18T10:20:08.889Z,997.72
2017-03-18T10:21:03.299Z,997.73
2017-03-18T10:21:51.935Z,997.81
2017-03-18T10:22:45.996Z,997.85
2017-03-18T10:23:34.440Z,997.79
2017-03-18T10:24:28.098Z,997.75
2017-03-18T10:25:22.125Z,997.78
2017-03-18T10:26:17.150Z,997.70
2017-03-18T10:27:12.276Z,997.72
2017-03-18T10:28:01.467Z,997.79
2017-03-18T10:28:55.354Z,997.82
2017-03-18T10:29:49.333Z,997.83
2017-03-18T10:30:38.364Z,997.74
2017-03-18T10:31:27.404Z,997.74
2017-03-18T10:32:22.539Z,997.86
2017-03-18T10:33:16.573Z,997.93
2017-03-18T10:34:06.054Z,997.91
2017-03-18T10:34:53.638Z,997.89
2017-03-18T10:35:42.624Z,997.94
2017-03-18T10:36:36.650Z,997.96
2017-03-18T10:37:30.727Z,998.00
2017-03-18T10:38:24.822Z,997.94
2017-03-18T10:39:13.844Z,997.88
2017-03-18T10:40:01.850Z,998.04
2017-03-18T10:40:55.911Z,998.06
2017-03-18T10:41:49.916Z,997.98
2017-03-18T10:42:45.036Z,997.99
2017-03-18T10:43:34.283Z,998.04
2017-03-18T10:44:28.138Z,998.10
2017-03-18T10:45:16.122Z,998.11
2017-03-18T10:46:11.129Z,998.07
2017-03-18T10:47:06.765Z,998.08
2017-03-18T10:48:00.241Z,998.10
2017-03-18T10:48:48.295Z,998.11
2017-03-18T10:49:37.779Z,998.06
2017-03-18T10:50:32.399Z,998.06
2017-03-18T10:51:21.442Z,998.00